createdAt,value
2017-12-20T00:02:04.275Z,42.67
2017-12-20T00:04:32.019Z,45.20
2017-12-20T00:06:59.742Z,49.47
2017-12-20T00:09:27.434Z,51.00
2017-12-20T00:11:54.754Z,47.70
2017-12-20T00:14:22.143Z,48.20
2017-12-20T00:16:49.481Z,50.40
2017-12-20T00:19:17.178Z,49.00
2017-12-20T00:21:44.937Z,54.60
2017-12-20T00:24:12.698Z,46.70
2017-12-20T00:26:40.015Z,53.43
2017-12-20T00:29:07.373Z,46.50
2017-12-20T00:31:34.763Z,50.10
2017-12-20T00:34:02.082Z,61.97
2017-12-20T00:36:29.454Z,53.33
2017-12-20T00:38:56.837Z,48.60
2017-12-20T00:41:24.486Z,49.00
2017-12-20T00:43:51.834Z,49.90
2017-12-20T00:46:19.193Z,45.17
2017-12-20T00:48:46.546Z,49.07
2017-12-20T00:51:13.883Z,52.47
2017-12-20T00:53:41.348Z,45.43
2017-12-20T00:56:08.728Z,40.23
2017-12-20T00:58:36.406Z,45.20
2017-12-20T01:01:04.050Z,42.30
2017-12-20T01:03:31.718Z,44.43
2017-12-20T01:05:59.514Z,47.70
2017-12-20T01:08:26.863Z,42.13
2017-12-20T01:10:54.203Z,40.83
2017-12-20T01:13:21.859Z,44.97
2017-12-20T01:15:49.490Z,42.57
2017-12-20T01:18:16.854Z,41.70
2017-12-20T01:20:44.183Z,42.00
2017-12-20T01:23:11.498Z,41.30
2017-12-20T01:25:38.875Z,43.83
2017-12-20T01:28:06.284Z,43.90
2017-12-20T01:30:33.958Z,38.20
2017-12-20T01:33:01.649Z,47.20
2017-12-20T01:35:28.967Z,36.87
2017-12-20T01:37:56.622Z,46.57
2017-12-20T01:40:24.330Z,38.27
2017-12-20T01:42:51.650Z,38.97
2017-12-20T01:45:19.287Z,36.43
2017-12-20T01:47:46.654Z,45.33
2017-12-20T01:50:14.328Z,41.90
2017-12-20T01:52:41.991Z,34.80
2017-12-20T01:55:09.691Z,37.17
2017-12-20T01:57:37.270Z,39.47
2017-12-20T02:00:04.949Z,36.20
2017-12-20T02:02:32.302Z,35.10
2017-12-20T02:04:59.630Z,38.17
2017-12-20T02:07:27.323Z,35.30
2017-12-20T02:09:54.679Z,38.27
2017-12-20T02:12:22.000Z,34.77
2017-12-20T02:14:49.421Z,35.97
2017-12-20T02:17:16.773Z,30.60
2017-12-20T02:19:44.446Z,34.63
2017-12-20T02:22:11.769Z,33.60
2017-12-20T02:24:39.426Z,26.20
2017-12-20T02:27:07.126Z,33.40
2017-12-20T02:29:34.446Z,28.03
2017-12-20T02:32:02.132Z,27.13
2017-12-20T02:34:29.808Z,25.60
2017-12-20T02:36:57.124Z,27.00
2017-12-20T02:39:24.847Z,24.80
2017-12-20T02:41:52.266Z,25.73
2017-12-20T02:44:19.955Z,25.63
2017-12-20T02:46:47.650Z,25.80
2017-12-20T02:49:14.968Z,23.77
2017-12-20T02:51:42.344Z,30.00
2017-12-20T02:54:09.852Z,28.20
2017-12-20T02:56:37.489Z,26.67
2017-12-20T02:59:04.855Z,21.30
2017-12-20T03:01:32.183Z,27.00
2017-12-20T03:03:59.842Z,25.30
2017-12-20T03:06:27.260Z,26.53
2017-12-20T03:08:54.578Z,21.80
2017-12-20T03:11:21.930Z,25.70
2017-12-20T03:13:49.644Z,23.60
2017-12-20T03:16:17.054Z,28.80
2017-12-20T03:18:44.578Z,25.77
2017-12-20T03:21:12.031Z,28.67
2017-12-20T03:23:39.410Z,26.57
2017-12-20T03:26:06.730Z,25.70
2017-12-20T03:28:34.159Z,27.50
2017-12-20T03:31:01.483Z,26.07
2017-12-20T03:33:29.135Z,26.90
2017-12-20T03:35:56.499Z,26.23
2017-12-20T03:38:24.146Z,27.17
2017-12-20T03:40:51.478Z,26.90
2017-12-20T03:43:18.843Z,28.67
2017-12-20T03:45:47.483Z,29.90
2017-12-20T03:48:14.903Z,30.13
2017-12-20T03:50:42.270Z,32.70
2017-12-20T03:53:09.915Z,31.67
2017-12-20T03:55:37.239Z,32.87
2017-12-20T03:58:04.604Z,34.63
2017-12-20T04:00:31.985Z,30.67
2017-12-20T04:02:59.314Z,33.30
2017-12-20T04:05:28.019Z,33.97
2017-12-20T04:07:55.415Z,37.67
2017-12-20T04:10:22.739Z,33.33
2017-12-20T04:12:50.438Z,33.87
2017-12-20T04:15:17.755Z,36.80
2017-12-20T04:17:45.411Z,38.30
2017-12-20T04:20:13.286Z,32.50
2017-12-20T04:22:40.934Z,32.33
2017-12-20T04:25:08.256Z,30.83
2017-12-20T04:27:36.026Z,28.50
2017-12-20T04:30:03.409Z,30.47
2017-12-20T04:32:31.764Z,25.70
2017-12-20T04:34:59.198Z,28.23
2017-12-20T04:37:26.613Z,27.17
2017-12-20T04:39:54.258Z,33.50
2017-12-20T04:42:21.602Z,24.93
2017-12-20T04:44:49.003Z,26.20
2017-12-20T04:47:16.383Z,24.07
2017-12-20T04:49:44.078Z,24.60
2017-12-20T04:52:11.386Z,27.40
2017-12-20T04:54:38.783Z,25.80
2017-12-20T04:57:06.155Z,26.43
2017-12-20T04:59:34.459Z,23.70
2017-12-20T05:02:02.126Z,21.07
2017-12-20T05:04:29.751Z,24.63
2017-12-20T05:06:57.076Z,29.47
2017-12-20T05:09:24.674Z,26.73
2017-12-20T05:11:52.328Z,30.53
2017-12-20T05:14:19.643Z,31.90
2017-12-20T05:16:47.102Z,40.43
2017-12-20T05:19:14.498Z,33.23
2017-12-20T05:21:41.810Z,45.80
2017-12-20T05:24:09.280Z,53.30
2017-12-20T05:26:36.671Z,41.27
2017-12-20T05:29:04.533Z,46.43
2017-12-20T05:31:32.534Z,43.20
2017-12-20T05:34:00.152Z,38.03
2017-12-20T05:36:27.487Z,32.00
2017-12-20T05:38:54.918Z,30.97
2017-12-20T05:41:22.235Z,33.13
2017-12-20T05:43:49.896Z,27.13
2017-12-20T05:46:17.588Z,28.30
2017-12-20T05:48:44.981Z,22.57
2017-12-20T05:51:12.659Z,21.63
2017-12-20T05:53:40.032Z,18.73
2017-12-20T05:56:08.651Z,18.70
2017-12-20T05:58:35.964Z,20.53
2017-12-20T06:01:03.650Z,18.83
2017-12-20T06:03:31.291Z,17.87
2017-12-20T06:05:58.954Z,19.53
2017-12-20T06:08:26.637Z,19.33
2017-12-20T06:10:54.266Z,21.50
2017-12-20T06:13:21.584Z,18.80
2017-12-20T06:15:49.114Z,21.77
2017-12-20T06:18:16.434Z,20.40
2017-12-20T06:20:43.812Z,27.80
2017-12-20T06:23:11.234Z,21.13
2017-12-20T06:25:38.551Z,25.17
2017-12-20T06:28:05.964Z,28.30
2017-12-20T06:30:33.667Z,27.70
2017-12-20T06:33:00.980Z,29.67
2017-12-20T06:35:28.452Z,23.40
2017-12-20T06:37:56.147Z,24.80
2017-12-20T06:40:23.567Z,27.50
2017-12-20T06:42:51.197Z,26.70
2017-12-20T06:45:18.541Z,24.30
2017-12-20T06:47:45.932Z,32.00
2017-12-20T06:50:13.570Z,22.23
2017-12-20T06:52:40.923Z,25.87
2017-12-20T06:55:08.238Z,27.57
2017-12-20T06:57:35.938Z,27.80
2017-12-20T07:00:03.304Z,26.93
2017-12-20T07:02:30.619Z,24.50
2017-12-20T07:04:58.319Z,27.50
2017-12-20T07:07:25.714Z,26.77
2017-12-20T07:09:53.350Z,28.60
2017-12-20T07:12:20.803Z,30.67
2017-12-20T07:14:48.486Z,30.03
2017-12-20T07:17:16.110Z,31.70
2017-12-20T07:19:43.468Z,22.67
2017-12-20T07:22:10.841Z,29.43
2017-12-20T07:24:38.479Z,23.00
2017-12-20T07:27:05.815Z,26.60
2017-12-20T07:29:33.262Z,24.23
2017-12-20T07:32:00.682Z,29.53
2017-12-20T07:34:28.310Z,27.40
2017-12-20T07:36:55.683Z,28.93
2017-12-20T07:39:23.205Z,26.03
2017-12-20T07:41:50.661Z,32.80
2017-12-20T07:44:18.091Z,24.43
2017-12-20T07:46:45.516Z,34.60
2017-12-20T07:49:13.155Z,26.43
2017-12-20T07:51:40.503Z,26.03
2017-12-20T07:54:07.867Z,27.40
2017-12-20T07:56:35.261Z,32.60
2017-12-20T07:59:02.943Z,32.67
2017-12-20T08:01:30.282Z,31.00
2017-12-20T08:03:57.996Z,29.33
2017-12-20T08:06:25.708Z,28.67
2017-12-20T08:08:53.029Z,36.20
2017-12-20T08:11:20.378Z,28.53
2017-12-20T08:13:48.075Z,24.83
2017-12-20T08:16:15.396Z,25.20
2017-12-20T08:18:43.050Z,35.53
2017-12-20T08:21:10.432Z,30.43
2017-12-20T08:23:38.080Z,31.17
2017-12-20T08:26:05.757Z,29.30
2017-12-20T08:28:33.404Z,29.10
2017-12-20T08:31:01.092Z,30.10
2017-12-20T08:33:28.954Z,31.40
2017-12-20T08:35:56.287Z,28.30
2017-12-20T08:38:23.903Z,25.80
2017-12-20T08:40:51.396Z,23.80
2017-12-20T08:43:18.755Z,33.93
2017-12-20T08:45:46.519Z,24.60
2017-12-20T08:48:14.168Z,26.30
2017-12-20T08:50:41.514Z,28.63
2017-12-20T08:53:08.905Z,25.90
2017-12-20T08:55:36.539Z,28.20
2017-12-20T08:58:03.859Z,28.10
2017-12-20T09:00:31.303Z,28.70
2017-12-20T09:02:58.663Z,32.07
2017-12-20T09:05:25.982Z,32.73
2017-12-20T09:07:53.683Z,32.70
2017-12-20T09:10:21.466Z,26.70
2017-12-20T09:12:48.859Z,26.63
2017-12-20T09:15:16.366Z,25.67
2017-12-20T09:17:43.758Z,29.13
2017-12-20T09:20:11.070Z,24.63
2017-12-20T09:22:38.439Z,28.10
2017-12-20T09:25:05.958Z,31.00
2017-12-20T09:27:33.651Z,24.20
2017-12-20T09:30:01.090Z,25.17
2017-12-20T09:32:28.415Z,25.60
2017-12-20T09:34:56.050Z,25.53
2017-12-20T09:37:23.403Z,28.00
2017-12-20T09:39:50.775Z,26.57
2017-12-20T09:42:18.305Z,22.73
2017-12-20T09:44:45.683Z,22.30
2017-12-20T09:47:13.057Z,27.30
2017-12-20T09:49:40.689Z,26.60
2017-12-20T09:52:08.008Z,28.33
2017-12-20T09:54:35.356Z,25.80
2017-12-20T09:57:02.675Z,26.90
2017-12-20T09:59:30.310Z,26.70
2017-12-20T10:01:57.667Z,24.97
2017-12-20T10:04:24.999Z,21.03
2017-12-20T10:06:52.329Z,20.70
2017-12-20T10:09:19.694Z,25.10
2017-12-20T10:11:47.104Z,22.60
2017-12-20T10:14:14.754Z,24.37
2017-12-20T10:16:42.119Z,22.00
2017-12-20T10:19:09.766Z,26.67
2017-12-20T10:21:37.082Z,22.43
2017-12-20T10:24:04.882Z,22.93
2017-12-20T10:26:32.286Z,26.77
2017-12-20T10:28:59.921Z,26.67
2017-12-20T10:31:27.295Z,35.33
2017-12-20T10:33:54.722Z,34.23
2017-12-20T10:36:22.375Z,28.73
2017-12-20T10:38:49.739Z,30.13
2017-12-20T10:41:17.052Z,24.77
2017-12-20T10:43:44.462Z,29.93
2017-12-20T10:46:12.160Z,23.77
2017-12-20T10:48:39.475Z,24.90
2017-12-20T10:51:07.114Z,29.83
2017-12-20T10:53:34.586Z,30.73
2017-12-20T10:56:02.239Z,29.90
2017-12-20T10:58:29.558Z,37.00
2017-12-20T11:00:57.623Z,31.93
2017-12-20T11:03:25.588Z,32.43
2017-12-20T11:05:53.689Z,33.20
2017-12-20T11:08:23.066Z,32.30
2017-12-20T11:10:51.224Z,28.43
2017-12-20T11:13:19.523Z,26.30
2017-12-20T11:15:48.327Z,27.50
2017-12-20T11:18:15.699Z,35.57
2017-12-20T11:20:43.635Z,35.40
2017-12-20T11:23:11.031Z,31.10
2017-12-20T11:25:38.727Z,28.27
2017-12-20T11:28:06.064Z,31.80
2017-12-20T11:30:33.512Z,36.23
2017-12-20T11:33:01.185Z,32.80
2017-12-20T11:35:28.544Z,34.90
2017-12-20T11:37:56.187Z,38.87
2017-12-20T11:40:23.835Z,28.73
2017-12-20T11:42:51.187Z,26.10
2017-12-20T11:45:18.527Z,32.47
2017-12-20T11:47:45.911Z,33.73
2017-12-20T11:50:13.612Z,38.77
2017-12-20T11:52:40.930Z,39.00
2017-12-20T11:55:08.584Z,33.53
2017-12-20T11:57:35.971Z,28.50
2017-12-20T12:00:03.330Z,34.93
2017-12-20T12:02:30.643Z,28.77
2017-12-20T12:04:58.009Z,28.67
2017-12-20T12:07:25.655Z,35.37
2017-12-20T12:09:52.975Z,36.20
2017-12-20T12:12:20.506Z,32.20
2017-12-20T12:14:48.127Z,35.10
2017-12-20T12:17:15.450Z,44.50
2017-12-20T12:19:42.903Z,43.33
2017-12-20T12:22:10.667Z,39.43
2017-12-20T12:24:38.396Z,44.27
2017-12-20T12:27:05.904Z,42.37
2017-12-20T12:29:33.338Z,49.53
2017-12-20T12:32:00.654Z,42.47
2017-12-20T12:34:28.302Z,38.63
2017-12-20T12:36:55.706Z,42.63
2017-12-20T12:39:23.308Z,42.70
2017-12-20T12:41:50.630Z,45.13
2017-12-20T12:44:18.380Z,42.53
2017-12-20T12:46:45.710Z,42.67
2017-12-20T12:49:13.349Z,49.67
2017-12-20T12:51:40.707Z,46.63
2017-12-20T12:54:08.033Z,41.43
2017-12-20T12:56:35.418Z,51.20
2017-12-20T12:59:02.799Z,43.27
2017-12-20T13:01:30.119Z,47.43
2017-12-20T13:03:57.443Z,46.57
2017-12-20T13:06:24.887Z,55.33
2017-12-20T13:08:52.207Z,49.90
2017-12-20T13:11:19.547Z,52.10
2017-12-20T13:13:47.247Z,61.73
2017-12-20T13:16:14.559Z,49.87
2017-12-20T13:18:41.892Z,52.90
2017-12-20T13:21:09.254Z,52.60
2017-12-20T13:23:36.578Z,47.70
2017-12-20T13:26:03.990Z,51.77
2017-12-20T13:28:31.695Z,61.03
2017-12-20T13:30:59.015Z,65.33
2017-12-20T13:33:26.762Z,63.13
2017-12-20T13:35:54.490Z,56.03
2017-12-20T13:38:21.886Z,62.83
2017-12-20T13:40:49.531Z,62.20
2017-12-20T13:43:16.890Z,63.60
2017-12-20T13:45:44.242Z,67.17
2017-12-20T13:48:11.907Z,57.47
2017-12-20T13:50:39.259Z,73.97
2017-12-20T13:53:06.622Z,68.30
2017-12-20T13:55:33.951Z,64.50
2017-12-20T13:58:01.386Z,72.97
2017-12-20T14:00:29.144Z,78.30
2017-12-20T14:02:56.491Z,71.80
2017-12-20T14:05:24.806Z,82.80
2017-12-20T14:07:52.182Z,65.93
2017-12-20T14:10:19.830Z,61.13
2017-12-20T14:12:47.203Z,58.23
2017-12-20T14:15:14.906Z,52.73
2017-12-20T14:17:42.247Z,47.40
2017-12-20T14:20:09.919Z,45.80
2017-12-20T14:22:37.443Z,51.37
2017-12-20T14:25:05.091Z,49.27
2017-12-20T14:27:32.435Z,50.53
2017-12-20T14:29:59.750Z,55.97
2017-12-20T14:32:27.130Z,53.93
2017-12-20T14:34:54.524Z,42.30
2017-12-20T14:37:21.883Z,35.20
2017-12-20T14:39:49.592Z,38.93
2017-12-20T14:42:16.943Z,44.27
2017-12-20T14:44:44.644Z,38.70
2017-12-20T14:47:11.997Z,42.27
2017-12-20T14:49:39.319Z,41.57
2017-12-20T14:52:07.016Z,37.33
2017-12-20T14:54:34.375Z,41.30
2017-12-20T14:57:01.913Z,37.20
2017-12-20T14:59:29.283Z,40.23
2017-12-20T15:01:56.634Z,39.40
2017-12-20T15:04:24.088Z,48.63
2017-12-20T15:06:51.756Z,50.43
2017-12-20T15:09:19.146Z,40.97
2017-12-20T15:11:46.785Z,47.37
2017-12-20T15:14:14.443Z,46.47
2017-12-20T15:16:42.170Z,47.80
2017-12-20T15:19:09.620Z,34.13
2017-12-20T15:21:36.932Z,38.70
2017-12-20T15:24:04.431Z,36.30
2017-12-20T15:26:31.829Z,45.93
2017-12-20T15:28:59.203Z,44.53
2017-12-20T15:31:26.611Z,33.70
2017-12-20T15:33:54.347Z,43.00
2017-12-20T15:36:21.663Z,40.37
2017-12-20T15:38:49.339Z,37.80
2017-12-20T15:41:16.987Z,38.67
2017-12-20T15:43:44.690Z,46.77
2017-12-20T15:46:12.007Z,41.93
2017-12-20T15:48:39.651Z,61.40
2017-12-20T15:51:07.010Z,50.83
2017-12-20T15:53:34.334Z,47.40
2017-12-20T15:56:02.024Z,47.23
2017-12-20T15:58:29.381Z,42.10
2017-12-20T16:00:57.039Z,48.20
2017-12-20T16:03:24.354Z,48.13
2017-12-20T16:05:51.819Z,54.80
2017-12-20T16:08:19.255Z,45.67
2017-12-20T16:10:47.069Z,57.57
2017-12-20T16:13:14.428Z,54.97
2017-12-20T16:15:41.748Z,50.93
2017-12-20T16:18:09.442Z,55.40
2017-12-20T16:20:36.805Z,49.07
2017-12-20T16:23:04.498Z,53.87
2017-12-20T16:25:31.868Z,47.40
2017-12-20T16:27:59.552Z,53.63
2017-12-20T16:30:26.861Z,48.57
2017-12-20T16:32:54.518Z,52.83
2017-12-20T16:35:22.166Z,58.33
2017-12-20T16:37:49.815Z,55.87
2017-12-20T16:40:17.220Z,53.87
2017-12-20T16:42:44.534Z,51.80
2017-12-20T16:45:12.198Z,47.73
2017-12-20T16:47:39.557Z,53.83
2017-12-20T16:50:07.206Z,60.87
2017-12-20T16:52:34.862Z,57.33
2017-12-20T16:55:02.239Z,54.70
2017-12-20T16:57:29.591Z,52.93
2017-12-20T16:59:57.226Z,53.90
2017-12-20T17:02:24.581Z,60.43
2017-12-20T17:04:51.902Z,54.77
2017-12-20T17:07:19.355Z,56.77
2017-12-20T17:09:46.682Z,52.83
2017-12-20T17:12:14.232Z,61.13
2017-12-20T17:14:41.936Z,59.13
2017-12-20T17:17:09.635Z,57.27
2017-12-20T17:19:37.003Z,54.77
2017-12-20T17:22:04.715Z,56.33
2017-12-20T17:24:32.040Z,61.00
2017-12-20T17:26:59.666Z,57.00
2017-12-20T17:29:27.029Z,50.70
2017-12-20T17:31:54.691Z,65.27
2017-12-20T17:34:22.355Z,56.67
2017-12-20T17:36:49.718Z,60.83
2017-12-20T17:39:17.366Z,66.77
2017-12-20T17:41:44.680Z,55.90
2017-12-20T17:44:12.418Z,58.63
2017-12-20T17:46:40.142Z,66.87
2017-12-20T17:49:07.463Z,60.40
2017-12-20T17:51:35.203Z,72.73
2017-12-20T17:54:02.539Z,52.97
2017-12-20T17:56:30.098Z,54.67
2017-12-20T17:58:57.820Z,58.00
2017-12-20T18:01:25.512Z,65.93
2017-12-20T18:03:54.170Z,68.93
2017-12-20T18:06:21.686Z,68.47
2017-12-20T18:08:49.043Z,65.37
2017-12-20T18:11:17.342Z,71.77
2017-12-20T18:13:45.056Z,65.80
2017-12-20T18:16:12.455Z,69.70
2017-12-20T18:18:41.162Z,63.23
2017-12-20T18:21:08.542Z,63.30
2017-12-20T18:23:36.242Z,69.00
2017-12-20T18:26:03.607Z,76.80
2017-12-20T18:28:30.934Z,69.57
2017-12-20T18:30:58.568Z,79.40
2017-12-20T18:33:25.946Z,80.73
2017-12-20T18:35:53.769Z,73.00
2017-12-20T18:38:21.450Z,66.13
2017-12-20T18:40:48.833Z,64.20
2017-12-20T18:43:16.143Z,73.37
2017-12-20T18:45:43.464Z,76.53
2017-12-20T18:48:10.827Z,70.97
2017-12-20T18:50:38.154Z,71.97
2017-12-20T18:53:05.466Z,72.47
2017-12-20T18:55:32.815Z,69.50
2017-12-20T18:58:00.196Z,79.90
2017-12-20T19:00:27.688Z,84.00
2017-12-20T19:02:55.029Z,73.47
2017-12-20T19:05:22.576Z,80.67
2017-12-20T19:07:50.202Z,66.10
2017-12-20T19:10:17.540Z,66.90
2017-12-20T19:12:45.520Z,68.50
2017-12-20T19:15:13.381Z,87.27
2017-12-20T19:17:40.706Z,79.30
2017-12-20T19:20:08.028Z,76.23
2017-12-20T19:22:35.636Z,67.47
2017-12-20T19:25:03.482Z,68.10
2017-12-20T19:27:30.853Z,68.57
2017-12-20T19:29:58.155Z,67.40
2017-12-20T19:32:25.851Z,71.73
2017-12-20T19:34:53.462Z,71.00
2017-12-20T19:37:20.892Z,73.33
2017-12-20T19:39:48.345Z,73.07
2017-12-20T19:42:16.081Z,72.57
2017-12-20T19:44:43.727Z,73.83
2017-12-20T19:47:11.487Z,74.33
2017-12-20T19:49:38.869Z,85.37
2017-12-20T19:52:06.211Z,97.07
2017-12-20T19:54:33.898Z,92.53
2017-12-20T19:57:01.219Z,80.80
2017-12-20T19:59:28.877Z,74.40
2017-12-20T20:01:57.083Z,71.23
2017-12-20T20:04:24.455Z,76.60
2017-12-20T20:06:51.783Z,76.90
2017-12-20T20:09:19.102Z,61.17
2017-12-20T20:11:46.867Z,71.47
2017-12-20T20:14:14.199Z,68.30
2017-12-20T20:16:41.962Z,76.07
2017-12-20T20:19:09.684Z,70.40
2017-12-20T20:21:37.007Z,66.73
2017-12-20T20:24:04.358Z,63.70
2017-12-20T20:26:32.039Z,68.73
2017-12-20T20:28:59.671Z,63.37
2017-12-20T20:31:27.015Z,62.20
2017-12-20T20:33:54.419Z,68.50
2017-12-20T20:36:22.035Z,70.27
2017-12-20T20:38:49.466Z,64.83
2017-12-20T20:41:16.874Z,63.77
2017-12-20T20:43:44.195Z,66.40
2017-12-20T20:46:11.613Z,65.97
2017-12-20T20:48:38.921Z,64.57
2017-12-20T20:51:06.248Z,67.43
2017-12-20T20:53:33.816Z,66.73
2017-12-20T20:56:01.211Z,61.80
2017-12-20T20:58:28.864Z,66.13
2017-12-20T21:00:56.572Z,68.63
2017-12-20T21:03:24.016Z,75.13
2017-12-20T21:05:51.340Z,87.70
2017-12-20T21:08:18.834Z,66.00
2017-12-20T21:10:46.297Z,77.63
2017-12-20T21:13:13.705Z,68.83
2017-12-20T21:15:41.063Z,82.87
2017-12-20T21:18:08.719Z,92.83
2017-12-20T21:20:36.371Z,63.07
2017-12-20T21:23:03.740Z,63.90
2017-12-20T21:25:31.385Z,62.50
2017-12-20T21:27:58.707Z,66.27
2017-12-20T21:30:26.158Z,71.20
2017-12-20T21:32:53.858Z,70.07
2017-12-20T21:35:21.179Z,60.80
2017-12-20T21:37:48.531Z,65.70
2017-12-20T21:40:16.245Z,71.20
2017-12-20T21:42:43.894Z,66.80
2017-12-20T21:45:11.261Z,60.13
2017-12-20T21:47:38.920Z,63.60
2017-12-20T21:50:06.235Z,75.27
2017-12-20T21:52:33.971Z,68.77
2017-12-20T21:55:01.586Z,70.93
2017-12-20T21:57:28.915Z,61.70
2017-12-20T21:59:56.351Z,61.90
2017-12-20T22:02:23.676Z,65.40
2017-12-20T22:04:51.175Z,58.23
2017-12-20T22:07:18.902Z,67.97
2017-12-20T22:09:46.282Z,71.20
2017-12-20T22:12:13.555Z,69.67
2017-12-20T22:14:41.602Z,68.90
2017-12-20T22:17:08.927Z,68.17
2017-12-20T22:19:36.596Z,76.00
2017-12-20T22:22:03.934Z,72.60
2017-12-20T22:24:31.575Z,71.47
2017-12-20T22:26:58.938Z,76.90
2017-12-20T22:29:26.255Z,73.87
2017-12-20T22:31:53.577Z,71.20
2017-12-20T22:34:21.242Z,70.50
2017-12-20T22:36:48.863Z,61.77
2017-12-20T22:39:16.227Z,74.63
2017-12-20T22:41:43.599Z,70.37
2017-12-20T22:44:11.235Z,68.90
2017-12-20T22:46:38.561Z,66.67
2017-12-20T22:49:06.307Z,76.40
2017-12-20T22:51:33.627Z,76.23
2017-12-20T22:54:01.273Z,72.07
2017-12-20T22:56:28.630Z,69.60
2017-12-20T22:58:55.943Z,66.17
2017-12-20T23:01:23.639Z,78.23
2017-12-20T23:03:51.009Z,66.10
2017-12-20T23:06:18.558Z,63.93
2017-12-20T23:08:45.879Z,77.27
2017-12-20T23:11:13.609Z,76.60
2017-12-20T23:13:41.011Z,60.30
2017-12-20T23:16:08.431Z,75.27
2017-12-20T23:18:35.804Z,70.97
2017-12-20T23:21:03.499Z,70.73
2017-12-20T23:23:30.822Z,69.07
2017-12-20T23:25:58.403Z,72.20
2017-12-20T23:28:25.798Z,66.93
2017-12-20T23:30:53.134Z,57.43
2017-12-20T23:33:20.503Z,65.67
2017-12-20T23:35:47.816Z,64.10
2017-12-20T23:38:15.194Z,63.67
2017-12-20T23:40:42.554Z,58.93
2017-12-20T23:43:10.050Z,52.90
2017-12-20T23:45:37.380Z,55.73
2017-12-20T23:48:05.073Z,57.90
2017-12-20T23:50:32.390Z,53.87
2017-12-20T23:53:00.075Z,62.20
2017-12-20T23:55:27.899Z,54.37
2017-12-20T23:57:55.227Z,46.00
